sensor_id;sensor_type;location;lat;lon;timestamp;P1;durP1;ratioP1;P2;durP2;ratioP2
24715;SDS011;12822;50.124;8.678;2023-09-18T00:02:24;13.43;;;6.05;;
24715;SDS011;12822;50.124;8.678;2023-09-18T00:04:50;14.93;;;6.03;;
24715;SDS011;12822;50.124;8.678;2023-09-18T00:07:16;10.77;;;5.55;;
24715;SDS011;12822;50.124;8.678;2023-09-18T00:09:42;11.43;;;5.60;;
24715;SDS011;12822;50.124;8.678;2023-09-18T00:12:08;12.82;;;5.43;;
24715;SDS011;12822;50.124;8.678;2023-09-18T00:14:35;11.40;;;5.47;;
24715;SDS011;12822;50.124;8.678;2023-09-18T00:17:01;13.68;;;6.30;;
24715;SDS011;12822;50.124;8.678;2023-09-18T00:19:26;11.70;;;5.60;;
24715;SDS011;12822;50.124;8.678;2023-09-18T00:21:52;14.10;;;6.30;;
24715;SDS011;12822;50.124;8.678;2023-09-18T00:24:19;9.48;;;5.35;;
24715;SDS011;12822;50.124;8.678;2023-09-18T00:26:45;9.05;;;5.28;;
24715;SDS011;12822;50.124;8.678;2023-09-18T00:29:13;7.70;;;4.97;;
24715;SDS011;12822;50.124;8.678;2023-09-18T00:31:39;8.13;;;5.45;;
24715;SDS011;12822;50.124;8.678;2023-09-18T00:34:06;9.05;;;5.57;;
24715;SDS011;12822;50.124;8.678;2023-09-18T00:36:32;11.35;;;5.75;;
24715;SDS011;12822;50.124;8.678;2023-09-18T00:38:58;11.23;;;5.13;;
24715;SDS011;12822;50.124;8.678;2023-09-18T00:41:24;10.82;;;5.22;;
24715;SDS011;12822;50.124;8.678;2023-09-18T00:43:49;12.77;;;5.18;;
24715;SDS011;12822;50.124;8.678;2023-09-18T00:46:15;8.10;;;5.05;;
24715;SDS011;12822;50.124;8.678;2023-09-18T00:48:42;6.25;;;4.90;;
24715;SDS011;12822;50.124;8.678;2023-09-18T00:51:08;8.15;;;5.43;;
24715;SDS011;12822;50.124;8.678;2023-09-18T00:53:34;8.93;;;5.13;;
24715;SDS011;12822;50.124;8.678;2023-09-18T00:56:00;10.63;;;4.63;;
24715;SDS011;12822;50.124;8.678;2023-09-18T00:58:26;8.93;;;5.07;;
24715;SDS011;12822;50.124;8.678;2023-09-18T01:00:52;7.70;;;4.88;;
24715;SDS011;12822;50.124;8.678;2023-09-18T01:03:22;13.88;;;5.20;;
24715;SDS011;12822;50.124;8.678;2023-09-18T01:05:50;10.18;;;5.00;;
24715;SDS011;12822;50.124;8.678;2023-09-18T01:08:16;10.63;;;5.13;;
24715;SDS011;12822;50.124;8.678;2023-09-18T01:10:53;8.77;;;4.90;;
24715;SDS011;12822;50.124;8.678;2023-09-18T01:13:23;12.95;;;5.53;;
24715;SDS011;12822;50.124;8.678;2023-09-18T01:16:04;10.50;;;4.23;;
24715;SDS011;12822;50.124;8.678;2023-09-18T01:18:31;10.52;;;5.43;;
24715;SDS011;12822;50.124;8.678;2023-09-18T01:20:57;9.98;;;5.40;;
24715;SDS011;12822;50.124;8.678;2023-09-18T01:23:22;9.80;;;5.43;;
24715;SDS011;12822;50.124;8.678;2023-09-18T01:25:48;5.43;;;4.80;;
24715;SDS011;12822;50.124;8.678;2023-09-18T01:28:14;11.45;;;5.10;;
24715;SDS011;12822;50.124;8.678;2023-09-18T01:30:41;6.90;;;4.97;;
24715;SDS011;12822;50.124;8.678;2023-09-18T01:33:07;8.10;;;4.70;;
24715;SDS011;12822;50.124;8.678;2023-09-18T01:35:33;9.07;;;4.82;;
24715;SDS011;12822;50.124;8.678;2023-09-18T01:38:00;8.40;;;5.15;;
24715;SDS011;12822;50.124;8.678;2023-09-18T01:40:28;8.15;;;4.47;;
24715;SDS011;12822;50.124;8.678;2023-09-18T01:42:54;10.07;;;5.22;;
24715;SDS011;12822;50.124;8.678;2023-09-18T01:45:20;6.57;;;4.63;;
24715;SDS011;12822;50.124;8.678;2023-09-18T01:47:46;7.15;;;5.25;;
24715;SDS011;12822;50.124;8.678;2023-09-18T01:50:12;8.52;;;4.95;;
24715;SDS011;12822;50.124;8.678;2023-09-18T01:52:38;6.10;;;4.80;;
24715;SDS011;12822;50.124;8.678;2023-09-18T01:55:04;10.65;;;5.18;;
24715;SDS011;12822;50.124;8.678;2023-09-18T01:57:31;7.45;;;4.40;;
24715;SDS011;12822;50.124;8.678;2023-09-18T01:59:57;10.35;;;4.75;;
24715;SDS011;12822;50.124;8.678;2023-09-18T02:02:22;8.00;;;4.40;;
24715;SDS011;12822;50.124;8.678;2023-09-18T02:04:48;7.30;;;4.55;;
24715;SDS011;12822;50.124;8.678;2023-09-18T02:07:14;8.18;;;4.45;;
24715;SDS011;12822;50.124;8.678;2023-09-18T02:09:41;7.18;;;4.65;;
24715;SDS011;12822;50.124;8.678;2023-09-18T02:12:07;7.20;;;4.93;;
24715;SDS011;12822;50.124;8.678;2023-09-18T02:14:33;9.10;;;4.75;;
24715;SDS011;12822;50.124;8.678;2023-09-18T02:16:59;7.38;;;4.75;;
24715;SDS011;12822;50.124;8.678;2023-09-18T02:19:25;8.85;;;4.47;;
24715;SDS011;12822;50.124;8.678;2023-09-18T02:21:51;6.95;;;4.80;;
24715;SDS011;12822;50.124;8.678;2023-09-18T02:24:17;6.97;;;4.72;;
24715;SDS011;12822;50.124;8.678;2023-09-18T02:26:44;9.82;;;5.18;;
24715;SDS011;12822;50.124;8.678;2023-09-18T02:29:10;9.10;;;5.40;;
24715;SDS011;12822;50.124;8.678;2023-09-18T02:31:38;9.60;;;5.40;;
24715;SDS011;12822;50.124;8.678;2023-09-18T02:34:04;9.82;;;5.10;;
24715;SDS011;12822;50.124;8.678;2023-09-18T02:36:32;8.55;;;5.35;;
24715;SDS011;12822;50.124;8.678;2023-09-18T02:38:58;8.90;;;4.65;;
24715;SDS011;12822;50.124;8.678;2023-09-18T02:41:24;9.23;;;4.75;;
24715;SDS011;12822;50.124;8.678;2023-09-18T02:43:50;11.82;;;5.13;;
24715;SDS011;12822;50.124;8.678;2023-09-18T02:46:16;11.18;;;5.88;;
24715;SDS011;12822;50.124;8.678;2023-09-18T02:48:42;8.18;;;5.38;;
24715;SDS011;12822;50.124;8.678;2023-09-18T02:51:08;8.60;;;4.85;;
24715;SDS011;12822;50.124;8.678;2023-09-18T02:53:34;11.75;;;5.50;;
24715;SDS011;12822;50.124;8.678;2023-09-18T02:56:00;9.23;;;5.05;;
24715;SDS011;12822;50.124;8.678;2023-09-18T02:58:26;6.68;;;4.50;;
24715;SDS011;12822;50.124;8.678;2023-09-18T03:00:54;7.75;;;4.80;;
24715;SDS011;12822;50.124;8.678;2023-09-18T03:03:20;7.60;;;5.15;;
24715;SDS011;12822;50.124;8.678;2023-09-18T03:05:46;8.07;;;5.20;;
24715;SDS011;12822;50.124;8.678;2023-09-18T03:08:13;8.73;;;4.85;;
24715;SDS011;12822;50.124;8.678;2023-09-18T03:10:39;9.38;;;4.85;;
24715;SDS011;12822;50.124;8.678;2023-09-18T03:13:06;9.65;;;5.00;;
24715;SDS011;12822;50.124;8.678;2023-09-18T03:15:32;16.30;;;5.55;;
24715;SDS011;12822;50.124;8.678;2023-09-18T03:17:59;11.18;;;5.05;;
24715;SDS011;12822;50.124;8.678;2023-09-18T03:20:29;11.50;;;5.20;;
24715;SDS011;12822;50.124;8.678;2023-09-18T03:22:57;9.45;;;5.13;;
24715;SDS011;12822;50.124;8.678;2023-09-18T03:25:23;11.52;;;4.95;;
24715;SDS011;12822;50.124;8.678;2023-09-18T03:27:50;10.85;;;5.45;;
24715;SDS011;12822;50.124;8.678;2023-09-18T03:30:16;9.88;;;5.03;;
24715;SDS011;12822;50.124;8.678;2023-09-18T03:32:43;9.15;;;5.32;;
24715;SDS011;12822;50.124;8.678;2023-09-18T03:35:09;10.27;;;5.40;;
24715;SDS011;12822;50.124;8.678;2023-09-18T03:37:42;10.07;;;5.70;;
24715;SDS011;12822;50.124;8.678;2023-09-18T03:40:09;10.98;;;5.72;;
24715;SDS011;12822;50.124;8.678;2023-09-18T03:42:35;11.18;;;5.60;;
24715;SDS011;12822;50.124;8.678;2023-09-18T03:45:01;9.07;;;5.78;;
24715;SDS011;12822;50.124;8.678;2023-09-18T03:47:28;10.85;;;6.55;;
24715;SDS011;12822;50.124;8.678;2023-09-18T03:49:54;9.48;;;5.47;;
24715;SDS011;12822;50.124;8.678;2023-09-18T03:52:20;10.73;;;6.60;;
24715;SDS011;12822;50.124;8.678;2023-09-18T03:54:46;9.35;;;5.55;;
24715;SDS011;12822;50.124;8.678;2023-09-18T03:57:12;9.60;;;5.13;;
24715;SDS011;12822;50.124;8.678;2023-09-18T03:59:38;11.43;;;5.95;;
24715;SDS011;12822;50.124;8.678;2023-09-18T04:02:04;9.40;;;5.32;;
24715;SDS011;12822;50.124;8.678;2023-09-18T04:04:30;8.95;;;5.40;;
24715;SDS011;12822;50.124;8.678;2023-09-18T04:06:57;12.63;;;6.20;;
24715;SDS011;12822;50.124;8.678;2023-09-18T04:09:23;11.70;;;6.22;;
24715;SDS011;12822;50.124;8.678;2023-09-18T04:11:49;10.52;;;6.25;;
24715;SDS011;12822;50.124;8.678;2023-09-18T04:14:15;12.20;;;6.20;;
24715;SDS011;12822;50.124;8.678;2023-09-18T04:16:41;13.43;;;6.28;;
24715;SDS011;12822;50.124;8.678;2023-09-18T04:19:08;12.50;;;5.88;;
24715;SDS011;12822;50.124;8.678;2023-09-18T04:21:35;17.75;;;6.55;;
24715;SDS011;12822;50.124;8.678;2023-09-18T04:24:01;12.30;;;5.97;;
24715;SDS011;12822;50.124;8.678;2023-09-18T04:26:27;12.57;;;5.70;;
24715;SDS011;12822;50.124;8.678;2023-09-18T04:28:56;12.38;;;5.53;;
24715;SDS011;12822;50.124;8.678;2023-09-18T04:31:22;13.88;;;5.93;;
24715;SDS011;12822;50.124;8.678;2023-09-18T04:33:48;12.55;;;5.72;;
24715;SDS011;12822;50.124;8.678;2023-09-18T04:36:14;12.07;;;5.72;;
24715;SDS011;12822;50.124;8.678;2023-09-18T04:38:40;8.98;;;5.40;;
24715;SDS011;12822;50.124;8.678;2023-09-18T04:41:06;12.65;;;5.43;;
24715;SDS011;12822;50.124;8.678;2023-09-18T04:43:35;10.23;;;6.03;;
24715;SDS011;12822;50.124;8.678;2023-09-18T04:46:01;11.18;;;5.25;;
24715;SDS011;12822;50.124;8.678;2023-09-18T04:48:29;14.68;;;5.40;;
24715;SDS011;12822;50.124;8.678;2023-09-18T04:50:56;12.07;;;5.47;;
24715;SDS011;12822;50.124;8.678;2023-09-18T04:53:21;13.20;;;5.68;;
24715;SDS011;12822;50.124;8.678;2023-09-18T04:55:48;12.88;;;5.78;;
24715;SDS011;12822;50.124;8.678;2023-09-18T04:58:15;13.63;;;5.85;;
24715;SDS011;12822;50.124;8.678;2023-09-18T05:00:41;16.40;;;5.90;;
24715;SDS011;12822;50.124;8.678;2023-09-18T05:03:09;10.05;;;5.55;;
24715;SDS011;12822;50.124;8.678;2023-09-18T05:05:36;11.43;;;5.65;;
24715;SDS011;12822;50.124;8.678;2023-09-18T05:08:02;13.63;;;5.70;;
24715;SDS011;12822;50.124;8.678;2023-09-18T05:10:29;12.70;;;5.55;;
24715;SDS011;12822;50.124;8.678;2023-09-18T05:12:55;11.15;;;5.90;;
24715;SDS011;12822;50.124;8.678;2023-09-18T05:15:23;12.45;;;5.60;;
24715;SDS011;12822;50.124;8.678;2023-09-18T05:17:51;13.35;;;5.82;;
24715;SDS011;12822;50.124;8.678;2023-09-18T05:20:20;14.15;;;5.72;;
24715;SDS011;12822;50.124;8.678;2023-09-18T05:22:49;20.70;;;5.68;;
24715;SDS011;12822;50.124;8.678;2023-09-18T05:25:15;10.00;;;5.88;;
24715;SDS011;12822;50.124;8.678;2023-09-18T05:27:42;14.38;;;5.80;;
24715;SDS011;12822;50.124;8.678;2023-09-18T05:30:14;13.85;;;5.45;;
24715;SDS011;12822;50.124;8.678;2023-09-18T05:32:41;10.70;;;5.47;;
24715;SDS011;12822;50.124;8.678;2023-09-18T05:35:08;12.45;;;5.40;;
24715;SDS011;12822;50.124;8.678;2023-09-18T05:37:38;18.88;;;5.47;;
24715;SDS011;12822;50.124;8.678;2023-09-18T05:40:05;21.38;;;5.88;;
24715;SDS011;12822;50.124;8.678;2023-09-18T05:42:34;10.20;;;4.22;;
24715;SDS011;12822;50.124;8.678;2023-09-18T05:45:00;13.38;;;4.57;;
24715;SDS011;12822;50.124;8.678;2023-09-18T05:47:26;14.80;;;4.65;;
24715;SDS011;12822;50.124;8.678;2023-09-18T05:49:54;14.90;;;5.30;;
24715;SDS011;12822;50.124;8.678;2023-09-18T05:52:20;12.15;;;5.07;;
24715;SDS011;12822;50.124;8.678;2023-09-18T05:54:48;14.00;;;5.10;;
24715;SDS011;12822;50.124;8.678;2023-09-18T05:57:14;11.05;;;4.68;;
24715;SDS011;12822;50.124;8.678;2023-09-18T05:59:41;11.50;;;4.80;;
24715;SDS011;12822;50.124;8.678;2023-09-18T06:02:10;14.60;;;5.07;;
24715;SDS011;12822;50.124;8.678;2023-09-18T06:04:36;14.30;;;5.00;;
24715;SDS011;12822;50.124;8.678;2023-09-18T06:07:05;19.23;;;5.05;;
24715;SDS011;12822;50.124;8.678;2023-09-18T06:09:31;16.50;;;4.82;;
24715;SDS011;12822;50.124;8.678;2023-09-18T06:11:57;16.73;;;5.15;;
24715;SDS011;12822;50.124;8.678;2023-09-18T06:14:24;15.68;;;4.97;;
24715;SDS011;12822;50.124;8.678;2023-09-18T06:16:50;17.48;;;5.05;;
24715;SDS011;12822;50.124;8.678;2023-09-18T06:19:16;15.70;;;6.15;;
24715;SDS011;12822;50.124;8.678;2023-09-18T06:21:43;22.95;;;4.60;;
24715;SDS011;12822;50.124;8.678;2023-09-18T06:24:09;13.50;;;5.20;;
24715;SDS011;12822;50.124;8.678;2023-09-18T06:26:35;22.00;;;4.60;;
24715;SDS011;12822;50.124;8.678;2023-09-18T06:29:01;14.23;;;5.18;;
24715;SDS011;12822;50.124;8.678;2023-09-18T06:31:28;16.13;;;5.07;;
24715;SDS011;12822;50.124;8.678;2023-09-18T06:33:56;19.25;;;5.07;;
24715;SDS011;12822;50.124;8.678;2023-09-18T06:36:22;16.27;;;4.47;;
24715;SDS011;12822;50.124;8.678;2023-09-18T06:38:48;16.98;;;4.95;;
24715;SDS011;12822;50.124;8.678;2023-09-18T06:41:14;16.45;;;4.45;;
24715;SDS011;12822;50.124;8.678;2023-09-18T06:43:40;22.08;;;5.25;;
24715;SDS011;12822;50.124;8.678;2023-09-18T06:46:09;19.25;;;4.95;;
24715;SDS011;12822;50.124;8.678;2023-09-18T06:48:35;21.20;;;4.60;;
24715;SDS011;12822;50.124;8.678;2023-09-18T06:51:01;15.20;;;4.93;;
24715;SDS011;12822;50.124;8.678;2023-09-18T06:53:27;21.60;;;4.82;;
24715;SDS011;12822;50.124;8.678;2023-09-18T06:55:53;14.82;;;5.03;;
24715;SDS011;12822;50.124;8.678;2023-09-18T06:58:20;15.35;;;4.22;;
24715;SDS011;12822;50.124;8.678;2023-09-18T07:00:46;14.60;;;4.75;;
24715;SDS011;12822;50.124;8.678;2023-09-18T07:03:12;15.05;;;5.43;;
24715;SDS011;12822;50.124;8.678;2023-09-18T07:05:41;22.35;;;5.25;;
24715;SDS011;12822;50.124;8.678;2023-09-18T07:08:08;28.10;;;4.95;;
24715;SDS011;12822;50.124;8.678;2023-09-18T07:10:37;18.58;;;4.97;;
24715;SDS011;12822;50.124;8.678;2023-09-18T07:13:03;15.43;;;4.10;;
24715;SDS011;12822;50.124;8.678;2023-09-18T07:15:29;16.13;;;4.38;;
24715;SDS011;12822;50.124;8.678;2023-09-18T07:17:55;19.60;;;4.35;;
24715;SDS011;12822;50.124;8.678;2023-09-18T07:20:21;22.08;;;4.60;;
24715;SDS011;12822;50.124;8.678;2023-09-18T07:22:48;15.05;;;4.57;;
24715;SDS011;12822;50.124;8.678;2023-09-18T07:25:15;12.77;;;4.43;;
24715;SDS011;12822;50.124;8.678;2023-09-18T07:27:42;14.43;;;4.10;;
24715;SDS011;12822;50.124;8.678;2023-09-18T07:30:11;20.20;;;4.65;;
24715;SDS011;12822;50.124;8.678;2023-09-18T07:32:41;17.25;;;4.25;;
24715;SDS011;12822;50.124;8.678;2023-09-18T07:35:08;17.52;;;3.78;;
24715;SDS011;12822;50.124;8.678;2023-09-18T07:37:34;16.83;;;4.03;;
24715;SDS011;12822;50.124;8.678;2023-09-18T07:40:01;20.00;;;4.68;;
24715;SDS011;12822;50.124;8.678;2023-09-18T07:42:27;13.93;;;3.83;;
24715;SDS011;12822;50.124;8.678;2023-09-18T07:44:53;16.67;;;4.90;;
24715;SDS011;12822;50.124;8.678;2023-09-18T07:47:19;19.10;;;4.40;;
24715;SDS011;12822;50.124;8.678;2023-09-18T07:49:45;15.57;;;4.32;;
24715;SDS011;12822;50.124;8.678;2023-09-18T07:52:12;16.73;;;4.50;;
24715;SDS011;12822;50.124;8.678;2023-09-18T07:54:38;17.33;;;4.18;;
24715;SDS011;12822;50.124;8.678;2023-09-18T07:57:04;13.68;;;4.50;;
24715;SDS011;12822;50.124;8.678;2023-09-18T07:59:34;22.00;;;4.60;;
24715;SDS011;12822;50.124;8.678;2023-09-18T08:02:00;16.08;;;4.15;;
24715;SDS011;12822;50.124;8.678;2023-09-18T08:04:26;16.63;;;5.07;;
24715;SDS011;12822;50.124;8.678;2023-09-18T08:06:52;18.40;;;4.45;;
24715;SDS011;12822;50.124;8.678;2023-09-18T08:09:18;15.73;;;4.18;;
24715;SDS011;12822;50.124;8.678;2023-09-18T08:11:44;15.88;;;4.38;;
24715;SDS011;12822;50.124;8.678;2023-09-18T08:14:10;20.90;;;4.80;;
24715;SDS011;12822;50.124;8.678;2023-09-18T08:16:37;18.23;;;4.57;;
24715;SDS011;12822;50.124;8.678;2023-09-18T08:19:04;15.13;;;4.50;;
24715;SDS011;12822;50.124;8.678;2023-09-18T08:21:31;17.75;;;3.95;;
24715;SDS011;12822;50.124;8.678;2023-09-18T08:23:57;19.73;;;4.32;;
24715;SDS011;12822;50.124;8.678;2023-09-18T08:26:24;19.48;;;4.75;;
24715;SDS011;12822;50.124;8.678;2023-09-18T08:28:51;14.10;;;4.60;;
24715;SDS011;12822;50.124;8.678;2023-09-18T08:31:18;14.73;;;4.53;;
24715;SDS011;12822;50.124;8.678;2023-09-18T08:33:48;15.55;;;4.50;;
24715;SDS011;12822;50.124;8.678;2023-09-18T08:36:14;19.83;;;3.95;;
24715;SDS011;12822;50.124;8.678;2023-09-18T08:38:41;14.80;;;4.05;;
24715;SDS011;12822;50.124;8.678;2023-09-18T08:41:09;13.98;;;4.13;;
24715;SDS011;12822;50.124;8.678;2023-09-18T08:43:35;17.02;;;4.03;;
24715;SDS011;12822;50.124;8.678;2023-09-18T08:46:03;14.27;;;3.67;;
24715;SDS011;12822;50.124;8.678;2023-09-18T08:48:29;19.00;;;3.85;;
24715;SDS011;12822;50.124;8.678;2023-09-18T08:51:02;13.85;;;3.40;;
24715;SDS011;12822;50.124;8.678;2023-09-18T08:53:33;15.82;;;3.45;;
24715;SDS011;12822;50.124;8.678;2023-09-18T08:56:00;16.40;;;3.55;;
24715;SDS011;12822;50.124;8.678;2023-09-18T08:58:36;16.13;;;3.80;;
24715;SDS011;12822;50.124;8.678;2023-09-18T09:01:05;10.80;;;2.55;;
24715;SDS011;12822;50.124;8.678;2023-09-18T09:03:35;15.77;;;3.42;;
24715;SDS011;12822;50.124;8.678;2023-09-18T09:06:01;16.00;;;3.53;;
24715;SDS011;12822;50.124;8.678;2023-09-18T09:08:30;14.73;;;3.55;;
24715;SDS011;12822;50.124;8.678;2023-09-18T09:10:56;13.68;;;2.78;;
24715;SDS011;12822;50.124;8.678;2023-09-18T09:13:23;12.82;;;3.47;;
24715;SDS011;12822;50.124;8.678;2023-09-18T09:15:52;16.35;;;3.78;;
24715;SDS011;12822;50.124;8.678;2023-09-18T09:18:20;13.63;;;3.53;;
24715;SDS011;12822;50.124;8.678;2023-09-18T09:23:22;15.95;;;4.10;;
24715;SDS011;12822;50.124;8.678;2023-09-18T09:25:48;12.65;;;2.75;;
24715;SDS011;12822;50.124;8.678;2023-09-18T09:28:14;14.65;;;3.40;;
24715;SDS011;12822;50.124;8.678;2023-09-18T09:30:41;7.68;;;2.83;;
24715;SDS011;12822;50.124;8.678;2023-09-18T09:33:10;17.90;;;3.10;;
24715;SDS011;12822;50.124;8.678;2023-09-18T09:35:37;12.55;;;3.17;;
24715;SDS011;12822;50.124;8.678;2023-09-18T09:40:33;13.02;;;2.75;;
24715;SDS011;12822;50.124;8.678;2023-09-18T09:43:00;17.20;;;3.22;;
24715;SDS011;12822;50.124;8.678;2023-09-18T09:45:27;14.32;;;2.83;;
24715;SDS011;12822;50.124;8.678;2023-09-18T09:48:00;11.05;;;3.05;;
24715;SDS011;12822;50.124;8.678;2023-09-18T09:50:27;16.40;;;3.13;;
24715;SDS011;12822;50.124;8.678;2023-09-18T09:52:53;10.75;;;2.78;;
24715;SDS011;12822;50.124;8.678;2023-09-18T09:55:27;10.48;;;2.55;;
24715;SDS011;12822;50.124;8.678;2023-09-18T09:57:57;14.05;;;2.75;;
24715;SDS011;12822;50.124;8.678;2023-09-18T10:00:29;9.23;;;2.30;;
24715;SDS011;12822;50.124;8.678;2023-09-18T10:02:58;13.60;;;2.92;;
24715;SDS011;12822;50.124;8.678;2023-09-18T10:05:28;8.35;;;2.65;;
24715;SDS011;12822;50.124;8.678;2023-09-18T10:07:56;11.77;;;2.30;;
24715;SDS011;12822;50.124;8.678;2023-09-18T10:10:27;6.43;;;2.28;;
24715;SDS011;12822;50.124;8.678;2023-09-18T10:12:55;10.43;;;2.50;;
24715;SDS011;12822;50.124;8.678;2023-09-18T10:15:23;9.65;;;2.20;;
24715;SDS011;12822;50.124;8.678;2023-09-18T10:17:49;7.50;;;2.28;;
24715;SDS011;12822;50.124;8.678;2023-09-18T10:20:19;7.22;;;2.45;;
24715;SDS011;12822;50.124;8.678;2023-09-18T10:22:46;7.30;;;2.00;;
24715;SDS011;12822;50.124;8.678;2023-09-18T10:25:18;6.75;;;2.15;;
24715;SDS011;12822;50.124;8.678;2023-09-18T10:27:49;6.20;;;2.13;;
24715;SDS011;12822;50.124;8.678;2023-09-18T10:30:17;8.25;;;1.98;;
24715;SDS011;12822;50.124;8.678;2023-09-18T10:32:44;5.78;;;1.92;;
24715;SDS011;12822;50.124;8.678;2023-09-18T10:35:11;8.18;;;1.80;;
24715;SDS011;12822;50.124;8.678;2023-09-18T10:37:37;8.20;;;2.10;;
24715;SDS011;12822;50.124;8.678;2023-09-18T10:40:04;5.63;;;1.70;;
24715;SDS011;12822;50.124;8.678;2023-09-18T10:42:33;6.45;;;1.55;;
24715;SDS011;12822;50.124;8.678;2023-09-18T10:45:00;7.38;;;1.55;;
24715;SDS011;12822;50.124;8.678;2023-09-18T10:47:26;4.95;;;1.70;;
24715;SDS011;12822;50.124;8.678;2023-09-18T10:49:53;5.05;;;1.55;;
24715;SDS011;12822;50.124;8.678;2023-09-18T10:52:19;5.85;;;1.73;;
24715;SDS011;12822;50.124;8.678;2023-09-18T10:54:45;13.43;;;1.70;;
24715;SDS011;12822;50.124;8.678;2023-09-18T10:57:11;5.45;;;1.48;;
24715;SDS011;12822;50.124;8.678;2023-09-18T10:59:44;9.60;;;1.95;;
24715;SDS011;12822;50.124;8.678;2023-09-18T11:02:13;5.25;;;1.50;;
24715;SDS011;12822;50.124;8.678;2023-09-18T11:04:41;4.35;;;1.30;;
24715;SDS011;12822;50.124;8.678;2023-09-18T11:07:07;7.65;;;1.80;;
24715;SDS011;12822;50.124;8.678;2023-09-18T11:09:41;5.13;;;1.30;;
24715;SDS011;12822;50.124;8.678;2023-09-18T11:12:11;6.88;;;1.73;;
24715;SDS011;12822;50.124;8.678;2023-09-18T11:14:41;4.93;;;1.60;;
24715;SDS011;12822;50.124;8.678;2023-09-18T11:20:04;4.50;;;1.40;;
24715;SDS011;12822;50.124;8.678;2023-09-18T11:22:34;5.25;;;1.25;;
24715;SDS011;12822;50.124;8.678;2023-09-18T11:27:54;6.65;;;1.70;;
24715;SDS011;12822;50.124;8.678;2023-09-18T11:30:21;4.18;;;1.42;;
24715;SDS011;12822;50.124;8.678;2023-09-18T11:32:47;6.68;;;1.48;;
24715;SDS011;12822;50.124;8.678;2023-09-18T11:35:13;4.00;;;1.27;;
24715;SDS011;12822;50.124;8.678;2023-09-18T11:37:42;4.07;;;1.35;;
24715;SDS011;12822;50.124;8.678;2023-09-18T11:40:28;7.00;;;1.50;;
24715;SDS011;12822;50.124;8.678;2023-09-18T11:45:41;9.93;;;1.50;;
24715;SDS011;12822;50.124;8.678;2023-09-18T11:48:07;6.10;;;1.58;;
24715;SDS011;12822;50.124;8.678;2023-09-18T11:50:37;4.03;;;1.40;;
24715;SDS011;12822;50.124;8.678;2023-09-18T11:53:05;8.77;;;1.60;;
24715;SDS011;12822;50.124;8.678;2023-09-18T11:55:31;4.90;;;1.45;;
24715;SDS011;12822;50.124;8.678;2023-09-18T11:57:57;8.18;;;1.60;;
24715;SDS011;12822;50.124;8.678;2023-09-18T12:00:26;5.00;;;1.50;;
24715;SDS011;12822;50.124;8.678;2023-09-18T12:02:54;7.88;;;1.83;;
24715;SDS011;12822;50.124;8.678;2023-09-18T12:05:20;5.95;;;1.48;;
24715;SDS011;12822;50.124;8.678;2023-09-18T12:07:51;4.68;;;1.60;;
24715;SDS011;12822;50.124;8.678;2023-09-18T12:10:17;7.22;;;1.60;;
24715;SDS011;12822;50.124;8.678;2023-09-18T12:12:46;7.35;;;1.50;;
24715;SDS011;12822;50.124;8.678;2023-09-18T12:15:12;9.70;;;1.60;;
24715;SDS011;12822;50.124;8.678;2023-09-18T12:17:40;5.82;;;1.45;;
24715;SDS011;12822;50.124;8.678;2023-09-18T12:20:06;8.43;;;1.77;;
24715;SDS011;12822;50.124;8.678;2023-09-18T12:22:32;7.55;;;1.60;;
24715;SDS011;12822;50.124;8.678;2023-09-18T12:25:35;3.70;;;1.30;;
24715;SDS011;12822;50.124;8.678;2023-09-18T12:27:54;6.93;;;1.30;;
24715;SDS011;12822;50.124;8.678;2023-09-18T12:30:21;4.22;;;1.40;;
24715;SDS011;12822;50.124;8.678;2023-09-18T12:32:48;7.57;;;1.42;;
24715;SDS011;12822;50.124;8.678;2023-09-18T12:35:14;6.20;;;1.63;;
24715;SDS011;12822;50.124;8.678;2023-09-18T12:37:42;9.60;;;1.63;;
24715;SDS011;12822;50.124;8.678;2023-09-18T12:40:28;4.05;;;1.55;;
24715;SDS011;12822;50.124;8.678;2023-09-18T12:42:55;7.82;;;1.48;;
24715;SDS011;12822;50.124;8.678;2023-09-18T12:45:22;6.13;;;1.50;;
24715;SDS011;12822;50.124;8.678;2023-09-18T12:47:49;8.25;;;1.65;;
24715;SDS011;12822;50.124;8.678;2023-09-18T12:50:15;5.65;;;1.63;;
24715;SDS011;12822;50.124;8.678;2023-09-18T12:52:41;5.32;;;1.50;;
24715;SDS011;12822;50.124;8.678;2023-09-18T12:55:07;7.47;;;1.45;;
24715;SDS011;12822;50.124;8.678;2023-09-18T12:57:33;9.75;;;1.83;;
24715;SDS011;12822;50.124;8.678;2023-09-18T13:00:07;5.35;;;1.67;;
24715;SDS011;12822;50.124;8.678;2023-09-18T13:02:35;8.20;;;1.88;;
24715;SDS011;12822;50.124;8.678;2023-09-18T13:05:02;4.38;;;1.48;;
24715;SDS011;12822;50.124;8.678;2023-09-18T13:07:28;5.07;;;1.55;;
24715;SDS011;12822;50.124;8.678;2023-09-18T13:10:01;6.05;;;1.50;;
24715;SDS011;12822;50.124;8.678;2023-09-18T13:15:29;7.53;;;1.80;;
24715;SDS011;12822;50.124;8.678;2023-09-18T13:17:56;8.80;;;1.50;;
24715;SDS011;12822;50.124;8.678;2023-09-18T13:20:24;7.18;;;1.63;;
24715;SDS011;12822;50.124;8.678;2023-09-18T13:22:50;6.80;;;1.73;;
24715;SDS011;12822;50.124;8.678;2023-09-18T13:25:23;6.38;;;2.00;;
24715;SDS011;12822;50.124;8.678;2023-09-18T13:27:50;5.68;;;1.75;;
24715;SDS011;12822;50.124;8.678;2023-09-18T13:30:17;11.90;;;2.47;;
24715;SDS011;12822;50.124;8.678;2023-09-18T13:32:45;9.00;;;1.92;;
24715;SDS011;12822;50.124;8.678;2023-09-18T13:35:13;7.32;;;1.42;;
24715;SDS011;12822;50.124;8.678;2023-09-18T13:37:39;5.53;;;1.95;;
24715;SDS011;12822;50.124;8.678;2023-09-18T13:40:06;4.85;;;1.92;;
24715;SDS011;12822;50.124;8.678;2023-09-18T13:42:32;7.15;;;1.83;;
24715;SDS011;12822;50.124;8.678;2023-09-18T13:44:58;3.22;;;1.55;;
24715;SDS011;12822;50.124;8.678;2023-09-18T13:47:26;5.78;;;1.70;;
24715;SDS011;12822;50.124;8.678;2023-09-18T13:49:52;7.18;;;2.03;;
24715;SDS011;12822;50.124;8.678;2023-09-18T13:52:21;6.47;;;1.67;;
24715;SDS011;12822;50.124;8.678;2023-09-18T13:54:47;5.90;;;1.65;;
24715;SDS011;12822;50.124;8.678;2023-09-18T13:57:16;6.93;;;1.60;;
24715;SDS011;12822;50.124;8.678;2023-09-18T13:59:43;9.15;;;1.92;;
24715;SDS011;12822;50.124;8.678;2023-09-18T14:02:09;6.57;;;1.85;;
24715;SDS011;12822;50.124;8.678;2023-09-18T14:04:36;9.57;;;1.70;;
24715;SDS011;12822;50.124;8.678;2023-09-18T14:07:02;6.18;;;1.80;;
24715;SDS011;12822;50.124;8.678;2023-09-18T14:09:28;7.03;;;1.77;;
24715;SDS011;12822;50.124;8.678;2023-09-18T14:11:55;4.47;;;1.98;;
24715;SDS011;12822;50.124;8.678;2023-09-18T14:14:24;7.90;;;1.80;;
24715;SDS011;12822;50.124;8.678;2023-09-18T14:16:50;3.85;;;1.33;;
24715;SDS011;12822;50.124;8.678;2023-09-18T14:19:16;5.97;;;2.00;;
24715;SDS011;12822;50.124;8.678;2023-09-18T14:21:42;4.53;;;1.50;;
24715;SDS011;12822;50.124;8.678;2023-09-18T14:24:09;7.20;;;1.70;;
24715;SDS011;12822;50.124;8.678;2023-09-18T14:26:36;10.70;;;1.75;;
24715;SDS011;12822;50.124;8.678;2023-09-18T14:29:08;3.65;;;1.40;;
24715;SDS011;12822;50.124;8.678;2023-09-18T14:31:35;3.80;;;1.60;;
24715;SDS011;12822;50.124;8.678;2023-09-18T14:34:02;4.93;;;1.50;;
24715;SDS011;12822;50.124;8.678;2023-09-18T14:36:29;7.68;;;2.10;;
24715;SDS011;12822;50.124;8.678;2023-09-18T14:38:56;5.72;;;1.67;;
24715;SDS011;12822;50.124;8.678;2023-09-18T14:41:22;7.38;;;2.08;;
24715;SDS011;12822;50.124;8.678;2023-09-18T14:43:50;5.97;;;1.90;;
24715;SDS011;12822;50.124;8.678;2023-09-18T14:46:16;5.43;;;1.90;;
24715;SDS011;12822;50.124;8.678;2023-09-18T14:48:42;5.32;;;1.83;;
24715;SDS011;12822;50.124;8.678;2023-09-18T14:51:09;8.48;;;2.13;;
24715;SDS011;12822;50.124;8.678;2023-09-18T14:53:35;9.70;;;2.17;;
24715;SDS011;12822;50.124;8.678;2023-09-18T14:56:04;7.10;;;2.35;;
24715;SDS011;12822;50.124;8.678;2023-09-18T14:58:30;6.55;;;2.10;;